Dornum — V2OZ — position and weather

sailwx.info

Track history (hours):
 
Tides and Currents Weather Stations Pressure Air Temp Water Temp Dewpoint Dewpoint Depression Visibility Wind Speed Wind Dir Waves Ship Positions

Dornum

Last reported at 2018-Apr-20 04:21 UTC. Time now 2018-Apr-20 22:14 UTC.
Position N 43°43' W 004°57'.

MMSI: 302961841.

Date/timePositionNaut miles runAvg speedWind from/ knotsBaromVisibWave heightAir tempDewpointWater temp
2018-Apr-20 04:21N 43°43' W 004°57'9 8.9
2018-Apr-20 03:21N 43°44' W 005°09'3 8.8
2018-Apr-20 03:00N 43°45' W 005°13'4 8.7
2018-Apr-20 02:29N 43°46' W 005°19'4 8.5
2018-Apr-20 02:00N 43°47' W 005°25'6 8.8
2018-Apr-20 01:20N 43°49' W 005°33'4 9.1
2018-Apr-20 00:55N 43°50' W 005°38'68 8.5
2018-Apr-19 16:52N 43°50' W 007°13'3 8.3
2018-Apr-19 16:29N 43°50' W 007°17'4 8.5
2018-Apr-19 16:00N 43°50' W 007°23'4 8.8
2018-Apr-19 15:30N 43°50' W 007°29'5 9.2
2018-Apr-19 15:00N 43°50' W 007°35'4 9.0
2018-Apr-19 14:30N 43°50' W 007°41'7 8.6
2018-Apr-19 13:41N 43°50' W 007°51'1 8.4
2018-Apr-19 13:30N 43°50' W 007°53'4 8.1
2018-Apr-19 12:59N 43°50' W 007°59'  
2018-Apr-13 14:41N 49°48' W 003°21'1 8.0
2018-Apr-13 14:30N 49°49' W 003°20'6 8.3
2018-Apr-13 13:48N 49°52' W 003°12'5 9.0
2018-Apr-13 13:17N 49°55' W 003°06'3 9.5
2018-Apr-13 13:00N 49°56' W 003°02'5 9.7
2018-Apr-13 12:30N 49°58' W 002°55'42 9.1
2018-Apr-13 07:52N 50°09' W 001°52'2 6.3
2018-Apr-13 07:30N 50°09' W 001°48'3 5.9
2018-Apr-13 06:59N 50°10' W 001°44'3 5.6
2018-Apr-13 06:29N 50°11' W 001°40'3 5.6
2018-Apr-13 06:00N 50°12' W 001°36'3 5.6
2018-Apr-13 05:30N 50°13' W 001°31'3 5.5
2018-Apr-13 05:00N 50°13' W 001°27'4 6.3
2018-Apr-13 04:25N 50°15' W 001°22'39 9.1
2018-Apr-13 00:09N 50°24' W 000°23'2 9.7
2018-Apr-12 23:59N 50°25' W 000°21'5 9.5
2018-Apr-12 23:30N 50°26' W 000°14'4 9.1
2018-Apr-12 23:00N 50°27' W 000°07'5 9.0
2018-Apr-12 22:30N 50°28' E 000°00'4 8.7
2018-Apr-12 22:00N 50°29' E 000°07'4 8.2
2018-Apr-12 21:30N 50°30' E 000°13'4 8.0
2018-Apr-12 21:00N 50°31' E 000°19'4 7.6
2018-Apr-12 20:27N 50°32' E 000°25'3 7.2
2018-Apr-12 20:00N 50°33' E 000°30'3 6.9
2018-Apr-12 19:30N 50°34' E 000°35'4 7.1
2018-Apr-12 19:00N 50°36' E 000°40'4 7.3
2018-Apr-12 18:30N 50°39' E 000°44'4 7.8
2018-Apr-12 18:00N 50°41' E 000°49'4 8.3
2018-Apr-12 17:30N 50°44' E 000°54'32 9.4
2018-Apr-12 14:08N 51°04' E 001°33'1 7.8
2018-Apr-12 14:00N 51°05' E 001°34'4 7.8
2018-Apr-12 13:30N 51°08' E 001°38'4 7.6
2018-Apr-12 13:00N 51°10' E 001°42'4 7.2
2018-Apr-12 12:30N 51°13' E 001°46'3 6.9
2018-Apr-12 12:00N 51°16' E 001°48'3 6.6
2018-Apr-12 11:30N 51°19' E 001°50'3 6.5
2018-Apr-12 11:00N 51°22' E 001°52'3 6.7
2018-Apr-12 10:30N 51°25' E 001°53'3 6.6
2018-Apr-12 10:00N 51°28' E 001°56'3 7.1
2018-Apr-12 09:30N 51°31' E 001°60'4 7.7
2018-Apr-12 09:00N 51°34' E 002°04'4 8.1
2018-Apr-12 08:29N 51°37' E 002°09'4 8.3
2018-Apr-12 08:00N 51°40' E 002°13'4 8.6
2018-Apr-12 07:29N 51°43' E 002°18'4 9.1
2018-Apr-12 07:00N 51°46' E 002°23'135 7.7
2018-Apr-11 13:32N 53°29' E 004°46'2 6.9
2018-Apr-11 13:14N 53°30' E 004°49'2 7.0
2018-Apr-11 12:58N 53°31' E 004°52'3 7.3
2018-Apr-11 12:30N 53°32' E 004°57'114 7.6
2018-Apr-10 21:27N 53°48' E 008°09'510.6
2018-Apr-10 21:00N 53°44' E 008°14'5 9.9
2018-Apr-10 20:30N 53°41' E 008°21'4 8.6
2018-Apr-10 20:00N 53°38' E 008°26'4 7.9
2018-Apr-10 19:30N 53°35' E 008°31'4 7.5
2018-Apr-10 19:00N 53°32' E 008°34'3 6.4
2018-Apr-10 18:29N 53°30' E 008°30'3 6.6
2018-Apr-10 18:00N 53°27' E 008°29'3 6.5
2018-Apr-10 17:31N 53°23' E 008°30'2 3.9
2018-Apr-10 16:59N 53°21' E 008°30'0 0.0
2018-Apr-10 16:29N 53°21' E 008°30'0 0.0
2018-Apr-10 15:59N 53°21' E 008°30'0 0.0
2018-Apr-10 15:26N 53°21' E 008°30'0 0.0
2018-Apr-10 14:59N 53°21' E 008°30'0 0.0
2018-Apr-10 14:11N 53°21' E 008°30'0 0.0
2018-Apr-10 13:59N 53°21' E 008°30'0 0.0
2018-Apr-10 13:29N 53°21' E 008°30'0 0.0
2018-Apr-10 12:59N 53°21' E 008°30'0 0.0
2018-Apr-10 12:26N 53°21' E 008°30'0 0.0
2018-Apr-10 11:59N 53°21' E 008°30'0 0.0
2018-Apr-10 11:29N 53°21' E 008°30'0 0.0
2018-Apr-10 10:56N 53°21' E 008°30'0 0.0
2018-Apr-10 10:26N 53°21' E 008°30'0 0.0
2018-Apr-10 09:59N 53°21' E 008°30'0 0.0
2018-Apr-10 09:29N 53°21' E 008°30'0 0.0
2018-Apr-10 08:59N 53°21' E 008°30'0 0.0
2018-Apr-10 08:29N 53°21' E 008°30'0 0.0
2018-Apr-10 07:59N 53°21' E 008°30'0 0.0
2018-Apr-10 07:26N 53°21' E 008°30'0 0.0
2018-Apr-10 06:59N 53°21' E 008°30'0 0.0
2018-Apr-10 06:29N 53°21' E 008°30'0 0.0
2018-Apr-10 05:59N 53°21' E 008°30'0 0.0
2018-Apr-10 05:29N 53°21' E 008°30'0 0.0
2018-Apr-10 04:59N 53°21' E 008°30'0 0.0
2018-Apr-10 04:29N 53°21' E 008°30'  
Track history (hours):
 
Tides and Currents Weather Stations Pressure Air Temp Water Temp Dewpoint Dewpoint Depression Visibility Wind Speed Wind Dir Waves Ship Positions

Dornum

Last reported at 2018-Apr-20 04:21 UTC. Time now 2018-Apr-20 22:14 UTC.
Position N 43°43' W 004°57'.

MMSI: 302961841.

Date/timePositionNaut miles runAvg speedWind from/ knotsBaromVisibWave heightAir tempDewpointWater temp
2018-Apr-20 04:21N 43°43' W 004°57'9 8.9
2018-Apr-20 03:21N 43°44' W 005°09'3 8.8
2018-Apr-20 03:00N 43°45' W 005°13'4 8.7
2018-Apr-20 02:29N 43°46' W 005°19'4 8.5
2018-Apr-20 02:00N 43°47' W 005°25'6 8.8
2018-Apr-20 01:20N 43°49' W 005°33'4 9.1
2018-Apr-20 00:55N 43°50' W 005°38'68 8.5
2018-Apr-19 16:52N 43°50' W 007°13'3 8.3
2018-Apr-19 16:29N 43°50' W 007°17'4 8.5
2018-Apr-19 16:00N 43°50' W 007°23'4 8.8
2018-Apr-19 15:30N 43°50' W 007°29'5 9.2
2018-Apr-19 15:00N 43°50' W 007°35'4 9.0
2018-Apr-19 14:30N 43°50' W 007°41'7 8.6
2018-Apr-19 13:41N 43°50' W 007°51'1 8.4
2018-Apr-19 13:30N 43°50' W 007°53'4 8.1
2018-Apr-19 12:59N 43°50' W 007°59'  
2018-Apr-13 14:41N 49°48' W 003°21'1 8.0
2018-Apr-13 14:30N 49°49' W 003°20'6 8.3
2018-Apr-13 13:48N 49°52' W 003°12'5 9.0
2018-Apr-13 13:17N 49°55' W 003°06'3 9.5
2018-Apr-13 13:00N 49°56' W 003°02'5 9.7
2018-Apr-13 12:30N 49°58' W 002°55'42 9.1
2018-Apr-13 07:52N 50°09' W 001°52'2 6.3
2018-Apr-13 07:30N 50°09' W 001°48'3 5.9
2018-Apr-13 06:59N 50°10' W 001°44'3 5.6
2018-Apr-13 06:29N 50°11' W 001°40'3 5.6
2018-Apr-13 06:00N 50°12' W 001°36'3 5.6
2018-Apr-13 05:30N 50°13' W 001°31'3 5.5
2018-Apr-13 05:00N 50°13' W 001°27'4 6.3
2018-Apr-13 04:25N 50°15' W 001°22'39 9.1
2018-Apr-13 00:09N 50°24' W 000°23'2 9.7
2018-Apr-12 23:59N 50°25' W 000°21'5 9.5
2018-Apr-12 23:30N 50°26' W 000°14'4 9.1
2018-Apr-12 23:00N 50°27' W 000°07'5 9.0
2018-Apr-12 22:30N 50°28' E 000°00'4 8.7
2018-Apr-12 22:00N 50°29' E 000°07'4 8.2
2018-Apr-12 21:30N 50°30' E 000°13'4 8.0
2018-Apr-12 21:00N 50°31' E 000°19'4 7.6
2018-Apr-12 20:27N 50°32' E 000°25'3 7.2
2018-Apr-12 20:00N 50°33' E 000°30'3 6.9
2018-Apr-12 19:30N 50°34' E 000°35'4 7.1
2018-Apr-12 19:00N 50°36' E 000°40'4 7.3
2018-Apr-12 18:30N 50°39' E 000°44'4 7.8
2018-Apr-12 18:00N 50°41' E 000°49'4 8.3
2018-Apr-12 17:30N 50°44' E 000°54'32 9.4
2018-Apr-12 14:08N 51°04' E 001°33'1 7.8
2018-Apr-12 14:00N 51°05' E 001°34'4 7.8
2018-Apr-12 13:30N 51°08' E 001°38'4 7.6
2018-Apr-12 13:00N 51°10' E 001°42'4 7.2
2018-Apr-12 12:30N 51°13' E 001°46'3 6.9
2018-Apr-12 12:00N 51°16' E 001°48'3 6.6
2018-Apr-12 11:30N 51°19' E 001°50'3 6.5
2018-Apr-12 11:00N 51°22' E 001°52'3 6.7
2018-Apr-12 10:30N 51°25' E 001°53'3 6.6
2018-Apr-12 10:00N 51°28' E 001°56'3 7.1
2018-Apr-12 09:30N 51°31' E 001°60'4 7.7
2018-Apr-12 09:00N 51°34' E 002°04'4 8.1
2018-Apr-12 08:29N 51°37' E 002°09'4 8.3
2018-Apr-12 08:00N 51°40' E 002°13'4 8.6
2018-Apr-12 07:29N 51°43' E 002°18'4 9.1
2018-Apr-12 07:00N 51°46' E 002°23'135 7.7
2018-Apr-11 13:32N 53°29' E 004°46'2 6.9
2018-Apr-11 13:14N 53°30' E 004°49'2 7.0
2018-Apr-11 12:58N 53°31' E 004°52'3 7.3
2018-Apr-11 12:30N 53°32' E 004°57'114 7.6
2018-Apr-10 21:27N 53°48' E 008°09'510.6
2018-Apr-10 21:00N 53°44' E 008°14'5 9.9
2018-Apr-10 20:30N 53°41' E 008°21'4 8.6
2018-Apr-10 20:00N 53°38' E 008°26'4 7.9
2018-Apr-10 19:30N 53°35' E 008°31'4 7.5
2018-Apr-10 19:00N 53°32' E 008°34'3 6.4
2018-Apr-10 18:29N 53°30' E 008°30'3 6.6
2018-Apr-10 18:00N 53°27' E 008°29'3 6.5
2018-Apr-10 17:31N 53°23' E 008°30'2 3.9
2018-Apr-10 16:59N 53°21' E 008°30'0 0.0
2018-Apr-10 16:29N 53°21' E 008°30'0 0.0
2018-Apr-10 15:59N 53°21' E 008°30'0 0.0
2018-Apr-10 15:26N 53°21' E 008°30'0 0.0
2018-Apr-10 14:59N 53°21' E 008°30'0 0.0
2018-Apr-10 14:11N 53°21' E 008°30'0 0.0
2018-Apr-10 13:59N 53°21' E 008°30'0 0.0
2018-Apr-10 13:29N 53°21' E 008°30'0 0.0
2018-Apr-10 12:59N 53°21' E 008°30'0 0.0
2018-Apr-10 12:26N 53°21' E 008°30'0 0.0
2018-Apr-10 11:59N 53°21' E 008°30'0 0.0
2018-Apr-10 11:29N 53°21' E 008°30'0 0.0
2018-Apr-10 10:56N 53°21' E 008°30'0 0.0
2018-Apr-10 10:26N 53°21' E 008°30'0 0.0
2018-Apr-10 09:59N 53°21' E 008°30'0 0.0
2018-Apr-10 09:29N 53°21' E 008°30'0 0.0
2018-Apr-10 08:59N 53°21' E 008°30'0 0.0
2018-Apr-10 08:29N 53°21' E 008°30'0 0.0
2018-Apr-10 07:59N 53°21' E 008°30'0 0.0
2018-Apr-10 07:26N 53°21' E 008°30'0 0.0
2018-Apr-10 06:59N 53°21' E 008°30'0 0.0
2018-Apr-10 06:29N 53°21' E 008°30'0 0.0
2018-Apr-10 05:59N 53°21' E 008°30'0 0.0
2018-Apr-10 05:29N 53°21' E 008°30'0 0.0
2018-Apr-10 04:59N 53°21' E 008°30'0 0.0
2018-Apr-10 04:29N 53°21' E 008°30'  

Dump ship's entire track history